Time;durP1;ratioP1;P1;durP2;ratioP2;P2;SDS_P1;SDS_P2;PMS_P1;PMS_P2;Temp;Humidity;BMP_temperature;BMP_pressure;BME280_temperature;BME280_humidity;BME280_pressure;Samples;Min_cycle;Max_cycle;Signal;HPM_P1;HPM_P2
2023/03/11 00:01:39;;;;;;;7.40;5.23;;;;;;;4.58;67.72;99678.06;6174719;22;97214;-52
2023/03/11 00:04:05;;;;;;;6.90;5.37;;;;;;;4.58;67.63;99672.59;6174977;22;96726;-52
2023/03/11 00:06:35;;;;;;;5.63;5.00;;;;;;;4.56;67.48;99678.50;6174084;22;97305;-52
2023/03/11 00:09:00;;;;;;;6.30;5.00;;;;;;;4.57;67.90;99687.44;6173377;22;96962;-52
2023/03/11 00:11:26;;;;;;;6.77;5.13;;;;;;;4.50;67.89;99687.81;6174855;22;97174;-52
2023/03/11 00:13:51;;;;;;;6.60;5.40;;;;;;;4.47;67.96;99705.88;6147551;22;96948;-52
2023/03/11 00:16:17;;;;;;;7.97;5.07;;;;;;;4.45;67.99;99702.88;6173954;22;97386;-52
2023/03/11 00:18:42;;;;;;;6.57;5.40;;;;;;;4.47;67.84;99714.06;6173679;22;97190;-52
2023/03/11 00:21:15;;;;;;;6.10;5.20;;;;;;;4.50;67.86;99721.25;6173662;22;96831;-52
2023/03/11 00:23:40;;;;;;;5.57;4.90;;;;;;;4.51;67.77;99728.22;6174721;22;96586;-52
2023/03/11 00:26:06;;;;;;;6.70;4.70;;;;;;;4.54;67.96;99726.53;6174139;22;97280;-52
2023/03/11 00:28:31;;;;;;;9.33;4.10;;;;;;;4.52;67.70;99732.44;6173727;22;96894;-52
2023/03/11 00:30:56;;;;;;;6.40;5.00;;;;;;;4.51;67.62;99739.13;6174466;22;96781;-52
2023/03/11 00:33:22;;;;;;;4.57;4.13;;;;;;;4.55;67.96;99742.38;6174262;22;96670;-52
2023/03/11 00:35:49;;;;;;;5.10;4.60;;;;;;;4.61;67.73;99747.19;6173155;22;97340;-52
2023/03/11 00:38:15;;;;;;;6.00;5.40;;;;;;;4.59;67.80;99755.06;6173368;22;97071;-51
2023/03/11 00:40:42;;;;;;;7.70;6.10;;;;;;;4.57;67.58;99756.28;6174681;22;96932;-52
2023/03/11 00:43:07;;;;;;;5.70;4.90;;;;;;;4.59;67.59;99771.41;6174718;22;97000;-52
2023/03/11 00:45:33;;;;;;;7.60;5.60;;;;;;;4.58;67.63;99770.66;6173333;22;99764;-52
2023/03/11 00:47:59;;;;;;;5.97;4.90;;;;;;;4.63;67.96;99774.69;6173407;22;97607;-52
2023/03/11 00:50:35;;;;;;;7.80;5.83;;;;;;;4.65;67.61;99777.69;6174343;22;96739;-52
2023/03/11 00:53:01;;;;;;;6.20;4.90;;;;;;;4.64;67.64;99785.09;6174205;22;96584;-52
2023/03/11 00:55:29;;;;;;;6.57;5.20;;;;;;;4.65;67.80;99788.59;6174261;22;96596;-52
2023/03/11 00:57:58;;;;;;;8.63;5.77;;;;;;;4.66;67.58;99787.34;6146115;22;100129;-52
2023/03/11 01:00:25;;;;;;;8.70;5.57;;;;;;;4.67;67.52;99788.88;6174262;22;96608;-52
2023/03/11 01:02:51;;;;;;;7.30;6.00;;;;;;;4.65;67.45;99792.06;6175011;22;96649;-52
2023/03/11 01:05:20;;;;;;;8.80;5.87;;;;;;;4.66;67.47;99793.56;6173194;22;98388;-52
2023/03/11 01:07:45;;;;;;;8.17;6.33;;;;;;;4.61;67.39;99816.00;6173435;22;96793;-52
2023/03/11 01:10:11;;;;;;;9.37;6.70;;;;;;;4.65;67.85;99807.66;6173308;22;96500;-52
2023/03/11 01:12:36;;;;;;;9.23;6.80;;;;;;;4.68;67.38;99814.88;6174847;22;97009;-52
2023/03/11 01:15:03;;;;;;;10.23;7.00;;;;;;;4.67;67.66;99816.09;6173866;22;96712;-51
2023/03/11 01:17:29;;;;;;;9.13;6.17;;;;;;;4.66;67.62;99825.47;6173709;22;99841;-51
2023/03/11 01:19:54;;;;;;;9.47;6.40;;;;;;;4.68;67.43;99826.53;6173789;22;96915;-52
2023/03/11 01:22:19;;;;;;;8.83;6.50;;;;;;;4.72;67.56;99834.53;6174022;22;96964;-52
2023/03/11 01:24:45;;;;;;;7.60;5.43;;;;;;;4.73;67.71;99836.00;6173665;22;104134;-52
2023/03/11 01:27:10;;;;;;;9.10;5.97;;;;;;;4.72;67.35;99840.69;6173732;22;97231;-52
2023/03/11 01:29:36;;;;;;;9.13;6.40;;;;;;;4.69;67.30;99847.09;6174057;22;96996;-52
2023/03/11 01:32:01;;;;;;;10.00;6.77;;;;;;;4.68;67.47;99851.03;6174104;22;96990;-51
2023/03/11 01:34:26;;;;;;;8.80;5.80;;;;;;;4.66;67.58;99856.19;6173762;22;96942;-52
2023/03/11 01:36:51;;;;;;;7.23;5.93;;;;;;;4.62;67.42;99861.09;6174083;22;97296;-51
2023/03/11 01:39:17;;;;;;;7.47;5.40;;;;;;;4.60;67.84;99862.78;6172915;22;97404;-51
2023/03/11 01:41:42;;;;;;;7.73;5.80;;;;;;;4.59;67.59;99859.31;6174315;22;96913;-52
2023/03/11 01:44:11;;;;;;;6.80;5.13;;;;;;;4.61;67.58;99892.25;6173510;22;96570;-52
2023/03/11 01:46:58;;;;;;;5.93;5.00;;;;;;;4.63;67.72;99878.94;6173618;22;97701;-51
2023/03/11 01:49:24;;;;;;;5.73;4.20;;;;;;;4.63;67.53;99875.47;6173576;22;96819;-51
2023/03/11 01:51:53;;;;;;;6.20;4.73;;;;;;;4.57;67.38;99880.81;6174016;22;96778;-52
2023/03/11 01:54:27;;;;;;;6.13;4.77;;;;;;;4.52;67.42;99892.38;6146728;22;99295;-51
2023/03/11 01:56:54;;;;;;;7.90;5.10;;;;;;;4.51;67.88;99893.59;6173268;22;97195;-51
2023/03/11 01:59:23;;;;;;;5.90;5.30;;;;;;;4.51;67.80;99910.69;6172032;22;96893;-52
2023/03/11 02:02:00;;;;;;;6.20;4.70;;;;;;;4.48;67.83;99906.16;6173905;22;96905;-52
2023/03/11 02:04:27;;;;;;;6.03;4.57;;;;;;;4.46;67.89;99921.47;6173478;22;97585;-51
2023/03/11 02:06:54;;;;;;;4.30;3.90;;;;;;;4.47;67.81;99907.41;6173281;22;96908;-52
2023/03/11 02:09:21;;;;;;;5.10;3.87;;;;;;;4.46;67.92;99911.31;6173121;22;96631;-52
2023/03/11 02:11:46;;;;;;;4.97;4.20;;;;;;;4.48;67.79;99919.78;6173392;22;96816;-51
2023/03/11 02:14:12;;;;;;;4.73;3.50;;;;;;;4.49;67.65;99921.31;6173341;22;96597;-51
2023/03/11 02:16:37;;;;;;;3.50;3.20;;;;;;;4.50;67.46;99925.50;6174013;22;97041;-52
2023/03/11 02:19:16;;;;;;;3.37;2.93;;;;;;;4.52;67.34;99930.50;6172807;22;96908;-51
2023/03/11 02:21:41;;;;;;;3.20;2.50;;;;;;;4.51;67.94;99927.03;6174149;22;97102;-51
2023/03/11 02:24:26;;;;;;;3.10;2.90;;;;;;;4.52;67.57;99933.97;6145213;22;97182;-52
2023/03/11 02:26:59;;;;;;;4.23;2.87;;;;;;;4.52;67.58;99942.13;6173280;22;96722;-52
2023/03/11 02:29:26;;;;;;;3.47;2.30;;;;;;;4.54;67.48;99944.41;6172983;22;96689;-52
2023/03/11 02:31:52;;;;;;;3.07;2.77;;;;;;;4.54;67.67;99938.97;6174156;22;96956;-52
2023/03/11 02:34:26;;;;;;;2.70;2.50;;;;;;;4.57;67.77;99952.38;6174780;22;96893;-52
2023/03/11 02:36:51;;;;;;;2.60;2.40;;;;;;;4.60;67.50;99955.38;6174204;22;97053;-52
2023/03/11 02:39:28;;;;;;;2.83;2.63;;;;;;;4.63;67.58;99957.19;6174117;22;96763;-52
2023/03/11 02:41:54;;;;;;;3.73;3.23;;;;;;;4.61;67.27;99949.47;6175811;22;97770;-51
2023/03/11 02:44:20;;;;;;;3.87;2.80;;;;;;;4.56;67.34;99953.59;6174387;22;96889;-52
2023/03/11 02:46:45;;;;;;;3.60;3.30;;;;;;;4.59;67.65;99959.34;6174186;22;97196;-52
2023/03/11 02:49:11;;;;;;;3.90;3.50;;;;;;;4.60;67.40;99964.31;6174023;22;97109;-52
2023/03/11 02:51:37;;;;;;;3.60;3.30;;;;;;;4.62;67.52;99964.59;6175068;22;97167;-52
2023/03/11 02:54:04;;;;;;;4.20;3.10;;;;;;;4.61;67.58;99965.81;6174292;22;103481;-52
2023/03/11 02:56:29;;;;;;;3.77;3.20;;;;;;;4.64;67.56;99985.91;6146458;22;96763;-52
2023/03/11 02:58:55;;;;;;;3.77;3.23;;;;;;;4.65;67.43;99987.44;6173679;22;96731;-51
2023/03/11 03:01:20;;;;;;;5.20;3.13;;;;;;;4.66;67.34;99986.97;6174817;22;97205;-51
2023/03/11 03:03:46;;;;;;;3.67;3.20;;;;;;;4.65;67.24;99995.59;6174841;22;97947;-52
2023/03/11 03:06:11;;;;;;;6.10;3.00;;;;;;;4.60;67.22;99999.72;6174457;22;106427;-51
2023/03/11 03:08:37;;;;;;;3.53;3.23;;;;;;;4.61;67.48;100003.94;6174334;22;96845;-51
2023/03/11 03:11:02;;;;;;;3.30;3.00;;;;;;;4.53;67.42;99995.41;6174843;22;97057;-52
2023/03/11 03:13:29;;;;;;;3.13;2.83;;;;;;;4.56;67.50;100007.34;6173723;22;97886;-51
2023/03/11 03:15:55;;;;;;;2.53;2.33;;;;;;;4.60;67.50;100013.34;6174391;22;96975;-52
2023/03/11 03:18:20;;;;;;;2.83;2.50;;;;;;;4.60;67.55;100015.31;6173826;22;96955;-52
2023/03/11 03:20:45;;;;;;;3.03;2.73;;;;;;;4.60;67.43;100013.34;6174938;22;96918;-51
2023/03/11 03:23:11;;;;;;;3.20;2.37;;;;;;;4.56;67.51;100018.22;6174148;22;97084;-52
2023/03/11 03:25:36;;;;;;;2.83;2.50;;;;;;;4.54;67.27;100034.28;6174844;22;97086;-52
2023/03/11 03:28:02;;;;;;;2.90;2.57;;;;;;;4.50;67.38;100036.41;6174613;22;97011;-51
2023/03/11 03:30:28;;;;;;;2.20;2.10;;;;;;;4.49;67.45;100034.91;6174852;22;96948;-51
2023/03/11 03:32:54;;;;;;;2.20;2.10;;;;;;;4.48;67.42;100041.56;6174406;22;97011;-51
2023/03/11 03:35:19;;;;;;;2.37;2.10;;;;;;;4.50;67.46;100047.31;6174016;22;96698;-52
2023/03/11 03:37:45;;;;;;;2.90;2.60;;;;;;;4.49;67.68;100045.81;6173539;22;96833;-51
2023/03/11 03:40:11;;;;;;;2.80;2.60;;;;;;;4.46;67.55;100052.94;6174324;22;96983;-51
2023/03/11 03:42:37;;;;;;;2.90;2.63;;;;;;;4.48;67.58;100068.81;6174414;22;97405;-52
2023/03/11 03:45:05;;;;;;;2.93;2.63;;;;;;;4.47;67.28;100061.88;6146630;22;97509;-51
2023/03/11 03:47:31;;;;;;;2.80;2.30;;;;;;;4.48;67.45;100060.63;6174441;22;97129;-52
2023/03/11 03:49:56;;;;;;;2.80;2.00;;;;;;;4.46;67.37;100073.97;6174749;22;96853;-51
2023/03/11 03:52:22;;;;;;;2.23;2.03;;;;;;;4.42;67.49;100074.16;6173976;22;96575;-52
2023/03/11 03:54:47;;;;;;;4.13;2.70;;;;;;;4.41;67.47;100080.81;6175082;22;97019;-52
2023/03/11 03:57:13;;;;;;;4.67;2.27;;;;;;;4.47;67.52;100092.59;6174197;22;96743;-51
2023/03/11 03:59:38;;;;;;;2.73;2.40;;;;;;;4.51;67.46;100086.94;6173487;22;97421;-52
2023/03/11 04:02:03;;;;;;;2.43;2.30;;;;;;;4.52;67.30;100089.19;6173318;22;104307;-51
2023/03/11 04:04:29;;;;;;;2.50;2.33;;;;;;;4.51;67.51;100100.56;6173978;22;96988;-51
2023/03/11 04:06:54;;;;;;;2.50;2.30;;;;;;;4.48;67.09;100104.97;6174673;22;96962;-51
2023/03/11 04:09:20;;;;;;;4.23;2.30;;;;;;;4.49;67.34;100100.28;6174511;22;97058;-50
2023/03/11 04:11:46;;;;;;;3.23;2.27;;;;;;;4.50;67.31;100101.78;6174103;22;97120;-51
2023/03/11 04:14:11;;;;;;;3.00;2.40;;;;;;;4.51;67.32;100109.50;6174049;22;96624;-51
2023/03/11 04:16:37;;;;;;;2.60;2.40;;;;;;;4.51;67.34;100106.78;6174869;22;97192;-51
2023/03/11 04:19:04;;;;;;;3.00;2.70;;;;;;;4.52;67.27;100111.00;6174543;22;97128;-51
2023/03/11 04:21:30;;;;;;;3.17;2.90;;;;;;;4.49;67.16;100111.94;6146853;22;99155;-51
2023/03/11 04:23:55;;;;;;;4.07;2.70;;;;;;;4.51;66.99;100125.09;6147462;22;97056;-51
2023/03/11 04:26:21;;;;;;;2.80;2.60;;;;;;;4.51;67.35;100128.56;6173542;22;96768;-52
2023/03/11 04:28:46;;;;;;;2.80;2.30;;;;;;;4.52;67.07;100132.03;6168039;22;97182;-51
2023/03/11 04:31:11;;;;;;;4.63;2.40;;;;;;;4.51;67.03;100136.72;6146018;22;97176;-51
2023/03/11 04:33:36;;;;;;;4.83;2.67;;;;;;;4.52;66.94;100126.59;6173851;22;96608;-51
2023/03/11 04:36:06;;;;;;;2.40;1.83;;;;;;;4.50;67.17;100135.22;6173757;22;96952;-51
2023/03/11 04:38:31;;;;;;;2.47;2.20;;;;;;;4.50;67.07;100137.94;6173904;22;97424;-51
2023/03/11 04:41:05;;;;;;;3.00;2.30;;;;;;;4.52;67.29;100135.50;6173656;22;96731;-51
2023/03/11 04:43:31;;;;;;;3.50;2.20;;;;;;;4.53;67.24;100134.28;6174179;22;97077;-51
2023/03/11 04:45:56;;;;;;;3.73;2.00;;;;;;;4.53;67.05;100144.44;6174350;22;97018;-51
2023/03/11 04:48:23;;;;;;;3.30;2.47;;;;;;;4.50;67.07;100140.66;6173530;22;96883;-51
2023/03/11 04:50:49;;;;;;;2.70;2.50;;;;;;;4.51;67.40;100149.59;6173286;22;97281;-51
2023/03/11 04:53:14;;;;;;;2.10;1.97;;;;;;;4.51;67.10;100149.59;6174114;22;97136;-51
2023/03/11 04:55:40;;;;;;;2.13;1.90;;;;;;;4.49;67.15;100163.69;6146306;22;96955;-51
2023/03/11 04:58:05;;;;;;;3.33;1.50;;;;;;;4.50;67.06;100153.53;6173364;22;97287;-51
2023/03/11 05:00:31;;;;;;;7.23;2.17;;;;;;;4.47;67.24;100160.66;6173802;22;96928;-51
2023/03/11 05:02:56;;;;;;;2.80;2.30;;;;;;;4.49;67.07;100166.41;6174114;22;96911;-51
2023/03/11 05:05:21;;;;;;;1.70;1.60;;;;;;;4.47;67.20;100174.28;6174351;22;96959;-51
2023/03/11 05:07:47;;;;;;;8.23;2.67;;;;;;;4.48;66.94;100164.13;6174417;22;96662;-51
2023/03/11 05:10:14;;;;;;;3.97;1.57;;;;;;;4.46;67.14;100170.03;6173632;22;97342;-51
2023/03/11 05:12:39;;;;;;;3.27;1.50;;;;;;;4.48;67.15;100178.50;6173405;22;96502;-51
2023/03/11 05:15:06;;;;;;;3.23;1.30;;;;;;;4.45;66.99;100184.88;6173942;22;96907;-50
2023/03/11 05:17:31;;;;;;;4.07;1.80;;;;;;;4.43;66.87;100200.91;6174134;22;97176;-51
2023/03/11 05:19:56;;;;;;;2.47;1.33;;;;;;;4.43;67.06;100190.00;6174180;22;97377;-51
2023/03/11 05:22:22;;;;;;;6.03;1.90;;;;;;;4.42;67.00;100191.25;6173595;22;96544;-52
2023/03/11 05:24:47;;;;;;;2.60;1.60;;;;;;;4.46;67.13;100199.22;6174331;22;96976;-51
2023/03/11 05:27:16;;;;;;;1.53;1.43;;;;;;;4.47;67.20;100201.53;6173996;22;96592;-50
2023/03/11 05:29:43;;;;;;;2.30;1.73;;;;;;;4.45;66.75;100220.28;6172469;22;96871;-51
2023/03/11 05:32:09;;;;;;;2.07;1.97;;;;;;;4.46;67.00;100216.34;6173755;22;97466;-50
2023/03/11 05:34:34;;;;;;;4.33;2.10;;;;;;;4.47;66.85;100223.31;6174058;22;96834;-50
2023/03/11 05:37:00;;;;;;;2.70;1.80;;;;;;;4.47;66.97;100233.44;6173291;22;97158;-51
2023/03/11 05:39:26;;;;;;;5.47;3.03;;;;;;;4.42;66.93;100226.66;6172287;22;97371;-51
2023/03/11 05:41:51;;;;;;;4.73;3.07;;;;;;;4.41;67.21;100235.28;6173814;22;97359;-51
2023/03/11 05:44:16;;;;;;;2.57;2.27;;;;;;;4.42;67.06;100236.78;6173714;22;97113;-51
2023/03/11 05:46:41;;;;;;;5.13;2.20;;;;;;;4.45;67.06;100235.88;6173865;22;96670;-51
2023/03/11 05:49:07;;;;;;;7.40;2.73;;;;;;;4.46;67.14;100243.56;6172951;22;101746;-51
2023/03/11 05:51:32;;;;;;;7.60;2.10;;;;;;;4.48;67.17;100254.75;6173000;22;97063;-51
2023/03/11 05:53:57;;;;;;;3.00;1.80;;;;;;;4.47;67.22;100255.22;6173785;22;96843;-51
2023/03/11 05:56:23;;;;;;;3.17;1.93;;;;;;;4.47;66.92;100253.25;6174485;22;97209;-51
2023/03/11 05:58:49;;;;;;;8.07;2.63;;;;;;;4.47;67.00;100260.69;6172432;22;97125;-51
2023/03/11 06:01:16;;;;;;;6.93;3.57;;;;;;;4.45;67.04;100263.88;6173440;22;97355;-51
2023/03/11 06:03:43;;;;;;;6.60;3.10;;;;;;;4.48;67.09;100257.47;6173218;22;96503;-51
2023/03/11 06:06:10;;;;;;;10.97;4.57;;;;;;;4.51;66.77;100263.97;6173503;22;97189;-51
2023/03/11 06:08:36;;;;;;;12.00;3.60;;;;;;;4.49;66.80;100275.34;6173673;22;96617;-50
2023/03/11 06:11:04;;;;;;;4.43;2.80;;;;;;;4.49;67.05;100278.06;6174587;22;97745;-51
2023/03/11 06:13:29;;;;;;;7.10;2.30;;;;;;;4.49;67.03;100274.59;6174709;22;96944;-51
2023/03/11 06:15:54;;;;;;;3.47;2.33;;;;;;;4.48;66.88;100278.50;6175017;22;97195;-51
2023/03/11 06:18:20;;;;;;;2.93;1.53;;;;;;;4.47;67.25;100285.19;6173457;22;106815;-50
2023/03/11 06:20:45;;;;;;;1.83;1.60;;;;;;;4.47;66.93;100291.41;6175370;22;97078;-51
2023/03/11 06:23:10;;;;;;;4.53;1.90;;;;;;;4.46;66.79;100292.59;6174787;22;96547;-51
2023/03/11 06:25:35;;;;;;;3.97;1.90;;;;;;;4.47;67.16;100299.56;6174759;22;96990;-51
2023/03/11 06:28:01;;;;;;;3.03;1.80;;;;;;;4.50;67.07;100308.75;6173125;22;106787;-51
2023/03/11 06:30:26;;;;;;;3.93;2.30;;;;;;;4.51;66.97;100302.13;6174526;22;97172;-51
2023/03/11 06:32:51;;;;;;;3.13;2.70;;;;;;;4.57;67.15;100313.88;6174098;22;97118;-51
2023/03/11 06:35:17;;;;;;;2.70;2.07;;;;;;;4.59;66.99;100316.91;6174029;22;96878;-51
2023/03/11 06:37:42;;;;;;;7.63;2.37;;;;;;;4.60;66.83;100326.59;6173803;22;96820;-51
2023/03/11 06:40:09;;;;;;;3.23;2.40;;;;;;;4.60;66.63;100325.84;6174565;22;97507;-51
2023/03/11 06:42:34;;;;;;;3.27;2.57;;;;;;;4.61;66.79;100336.28;6175437;22;97026;-51
2023/03/11 06:45:00;;;;;;;5.83;2.83;;;;;;;4.63;66.90;100333.09;6175004;22;96780;-51
2023/03/11 06:47:26;;;;;;;2.83;2.57;;;;;;;4.65;66.70;100341.56;6174484;22;100593;-51
2023/03/11 06:49:51;;;;;;;4.67;2.60;;;;;;;4.62;66.70;100343.25;6174381;22;97225;-51
2023/03/11 06:52:17;;;;;;;2.43;2.23;;;;;;;4.64;66.85;100356.41;6174031;22;96669;-51
2023/03/11 06:54:42;;;;;;;3.50;3.20;;;;;;;4.64;66.89;100359.88;6174972;22;96639;-51
2023/03/11 06:57:08;;;;;;;4.97;2.80;;;;;;;4.65;66.61;100352.47;6147626;22;100001;-51
2023/03/11 06:59:34;;;;;;;4.40;2.13;;;;;;;4.64;66.59;100364.56;6173954;22;96806;-51
2023/03/11 07:02:00;;;;;;;2.50;2.30;;;;;;;4.67;66.71;100366.38;6175372;22;96901;-51
2023/03/11 07:04:25;;;;;;;5.00;3.00;;;;;;;4.72;66.73;100371.97;6174742;22;96764;-51
2023/03/11 07:06:51;;;;;;;7.07;3.30;;;;;;;4.77;66.79;100376.03;6174771;22;96739;-51
2023/03/11 07:09:16;;;;;;;4.67;2.30;;;;;;;4.79;66.50;100376.34;6174020;22;109998;-51
2023/03/11 07:11:42;;;;;;;4.10;3.00;;;;;;;4.77;66.67;100387.69;6175134;22;96522;-51
2023/03/11 07:14:07;;;;;;;5.90;2.33;;;;;;;4.78;66.99;100389.22;6174999;22;96906;-51
2023/03/11 07:16:33;;;;;;;4.07;2.60;;;;;;;4.80;66.59;100399.66;6173807;22;96637;-51
2023/03/11 07:19:01;;;;;;;4.70;2.97;;;;;;;4.84;66.85;100400.25;6173906;22;97535;-51
2023/03/11 07:21:28;;;;;;;5.50;2.50;;;;;;;4.88;66.87;100409.00;6174466;22;96847;-51
2023/03/11 07:23:55;;;;;;;5.80;2.67;;;;;;;4.87;66.49;100412.97;6175142;22;96820;-51
2023/03/11 07:26:22;;;;;;;5.73;3.00;;;;;;;4.87;66.62;100412.97;6174358;22;97106;-51
2023/03/11 07:28:48;;;;;;;2.93;2.73;;;;;;;4.89;66.47;100424.91;6174573;22;97088;-51
2023/03/11 07:31:19;;;;;;;4.90;2.27;;;;;;;4.88;66.53;100426.13;6174784;22;96794;-51
2023/03/11 07:33:45;;;;;;;2.57;2.10;;;;;;;4.93;66.64;100430.22;6175932;22;97049;-50
2023/03/11 07:36:13;;;;;;;3.00;1.60;;;;;;;4.97;66.86;100444.44;6173546;22;97463;-50
2023/03/11 07:38:39;;;;;;;3.73;1.83;;;;;;;5.01;66.64;100450.47;6173392;22;97604;-51
2023/03/11 07:41:06;;;;;;;1.93;1.70;;;;;;;5.03;66.50;100446.06;6174177;22;96654;-50
2023/03/11 07:43:32;;;;;;;5.07;2.00;;;;;;;5.10;66.61;100453.94;6174596;22;96610;-51
2023/03/11 07:46:10;;;;;;;11.83;3.67;;;;;;;5.14;66.44;100459.22;6173387;22;96759;-51
2023/03/11 07:48:37;;;;;;;9.40;4.93;;;;;;;5.16;66.56;100467.69;6173703;22;96514;-51
2023/03/11 07:51:11;;;;;;;8.13;4.77;;;;;;;5.24;66.68;100468.91;6174899;22;97071;-51
2023/03/11 07:53:36;;;;;;;12.07;4.30;;;;;;;5.30;66.60;100480.69;6174900;22;96473;-51
2023/03/11 07:56:03;;;;;;;8.20;4.40;;;;;;;5.46;66.77;100483.03;6174476;22;96545;-51
2023/03/11 07:58:29;;;;;;;5.27;3.17;;;;;;;5.63;66.40;100489.66;6173589;22;97744;-51
2023/03/11 08:00:55;;;;;;;6.00;3.90;;;;;;;5.69;66.18;100498.72;6173992;22;97094;-51
2023/03/11 08:03:24;;;;;;;5.57;3.77;;;;;;;5.71;65.85;100495.50;6174351;22;97121;-51
2023/03/11 08:05:50;;;;;;;6.20;3.47;;;;;;;5.67;66.04;100498.41;6173584;22;97530;-51
2023/03/11 08:08:15;;;;;;;7.20;4.60;;;;;;;5.61;65.80;100504.97;6173121;22;97084;-51
2023/03/11 08:10:41;;;;;;;5.10;4.33;;;;;;;5.57;66.30;100507.84;6174893;22;97035;-51
2023/03/11 08:13:06;;;;;;;10.03;5.70;;;;;;;5.56;66.23;100509.06;6174295;22;97365;-51
2023/03/11 08:15:32;;;;;;;12.73;5.40;;;;;;;5.58;66.02;100520.28;6174039;22;97018;-51
2023/03/11 08:17:57;;;;;;;6.93;4.20;;;;;;;5.54;65.77;100522.44;6173551;22;97406;-51
2023/03/11 08:20:22;;;;;;;11.43;4.57;;;;;;;5.56;65.88;100527.41;6174419;22;96848;-51
2023/03/11 08:22:48;;;;;;;7.60;4.10;;;;;;;5.56;66.16;100530.91;6175349;22;96688;-51
2023/03/11 08:25:13;;;;;;;4.20;2.97;;;;;;;5.58;66.29;100539.38;6172885;22;107110;-51
2023/03/11 08:27:39;;;;;;;3.70;2.23;;;;;;;5.58;65.85;100527.72;6173565;22;96597;-51
2023/03/11 08:30:05;;;;;;;4.53;2.10;;;;;;;5.61;65.83;100541.19;6172807;22;96580;-51
2023/03/11 08:32:31;;;;;;;1.93;1.67;;;;;;;5.62;65.93;100548.16;6173915;22;96737;-51
2023/03/11 08:34:57;;;;;;;1.60;1.50;;;;;;;5.66;65.72;100543.28;6174818;22;96959;-51
2023/03/11 08:37:23;;;;;;;2.03;1.83;;;;;;;5.69;65.71;100556.03;6172575;22;96800;-51
2023/03/11 08:39:48;;;;;;;4.50;2.50;;;;;;;5.77;66.15;100559.16;6174251;22;97444;-51
2023/03/11 08:42:14;;;;;;;8.67;4.90;;;;;;;5.92;66.00;100565.50;6173994;22;96994;-50
2023/03/11 08:44:40;;;;;;;13.43;5.43;;;;;;;6.10;65.77;100572.84;6173139;22;96750;-51
2023/03/11 08:47:05;;;;;;;13.03;5.23;;;;;;;6.18;65.70;100571.31;6174226;22;101792;-51
2023/03/11 08:49:30;;;;;;;13.23;5.10;;;;;;;6.24;65.76;100574.91;6173856;22;97079;-51
2023/03/11 08:51:56;;;;;;;5.53;2.83;;;;;;;6.33;65.51;100574.84;6175010;22;96904;-51
2023/03/11 08:54:21;;;;;;;6.60;2.63;;;;;;;6.41;65.37;100578.75;6172554;22;110278;-51
2023/03/11 08:56:46;;;;;;;6.93;3.10;;;;;;;6.38;65.39;100580.44;6173881;22;96877;-50
2023/03/11 08:59:13;;;;;;;6.80;4.70;;;;;;;6.39;65.48;100586.66;6173327;22;96857;-51
2023/03/11 09:01:38;;;;;;;5.07;2.90;;;;;;;6.41;65.14;100595.91;6173635;22;97266;-52
2023/03/11 09:04:03;;;;;;;10.43;3.00;;;;;;;6.42;64.90;100588.47;6173285;22;97238;-51
2023/03/11 09:06:29;;;;;;;6.90;3.53;;;;;;;6.41;65.19;100595.91;6173348;22;96806;-51
2023/03/11 09:08:54;;;;;;;5.97;3.60;;;;;;;6.51;65.71;100599.34;6173659;22;96786;-51
2023/03/11 09:11:21;;;;;;;5.53;2.30;;;;;;;6.63;65.34;100593.63;6174348;22;96838;-51
2023/03/11 09:13:47;;;;;;;3.93;1.53;;;;;;;6.77;64.94;100597.66;6173848;22;96728;-52
2023/03/11 09:16:15;;;;;;;10.83;2.20;;;;;;;6.78;65.03;100602.63;6174181;22;97097;-51
2023/03/11 09:18:40;;;;;;;4.17;1.20;;;;;;;6.82;64.59;100608.69;6173529;22;96973;-51
2023/03/11 09:21:06;;;;;;;1.87;1.00;;;;;;;6.88;64.66;100611.50;6171869;22;97507;-51
2023/03/11 09:23:31;;;;;;;2.40;1.50;;;;;;;6.96;64.83;100607.22;6174033;22;97666;-52
2023/03/11 09:25:57;;;;;;;3.13;1.33;;;;;;;7.06;64.76;100611.38;6173835;22;96933;-51
2023/03/11 09:28:22;;;;;;;3.33;1.70;;;;;;;7.11;64.64;100607.22;6173226;22;96576;-51
2023/03/11 09:30:48;;;;;;;2.70;1.57;;;;;;;7.20;64.56;100605.19;6174363;22;96920;-52
2023/03/11 09:33:13;;;;;;;2.30;1.40;;;;;;;7.28;64.22;100613.75;6174268;22;97006;-52
2023/03/11 09:35:38;;;;;;;2.23;1.37;;;;;;;7.32;64.23;100614.31;6174311;22;96616;-52
2023/03/11 09:38:04;;;;;;;4.90;1.20;;;;;;;7.36;64.35;100601.97;6174134;22;96911;-52
2023/03/11 09:41:11;;;;;;;1.57;1.03;;;;;;;7.39;63.29;100617.47;6146847;22;97174;-52
2023/03/11 09:43:56;;;;;;;3.37;1.27;;;;;;;7.46;63.04;100622.56;6110437;22;96893;-52
2023/03/11 09:46:46;;;;;;;1.10;1.00;;;;;;;7.51;63.54;100630.09;6145952;22;97314;-52
2023/03/11 09:49:47;;;;;;;3.63;1.80;;;;;;;7.42;62.89;100632.19;6173489;22;96814;-52
2023/03/11 09:52:16;;;;;;;2.80;1.60;;;;;;;7.42;64.29;100645.88;6020446;23;96834;-53
2023/03/11 09:54:46;;;;;;;3.20;1.90;;;;;;;7.44;63.91;100641.44;6144832;22;97374;-53
2023/03/11 09:57:18;;;;;;;2.90;2.23;;;;;;;7.49;64.27;100643.50;6172045;22;96598;-53
2023/03/11 09:59:45;;;;;;;2.70;2.33;;;;;;;7.49;64.02;100643.50;6173098;22;96931;-52
2023/03/11 10:02:15;;;;;;;3.13;1.90;;;;;;;7.57;64.22;100643.91;6173756;22;97057;-52
2023/03/11 10:05:11;;;;;;;4.33;3.33;;;;;;;7.68;63.42;100649.56;6173208;22;97022;-52
2023/03/11 10:07:40;;;;;;;4.67;3.93;;;;;;;7.72;63.92;100654.84;6172825;22;96895;-53
2023/03/11 10:10:10;;;;;;;3.33;2.33;;;;;;;7.79;64.29;100652.50;6173089;22;97005;-52
2023/03/11 10:13:02;;;;;;;2.07;1.87;;;;;;;7.90;63.55;100649.19;6171946;22;96993;-52
2023/03/11 10:15:59;;;;;;;2.57;2.20;;;;;;;7.88;62.87;100640.69;6172876;22;96731;-52
2023/03/11 10:18:43;;;;;;;2.10;1.40;;;;;;;7.83;63.66;100652.31;6172302;22;97126;-52
2023/03/11 10:21:50;;;;;;;3.80;1.50;;;;;;;7.93;63.04;100659.22;6173666;22;96868;-53
2023/03/11 10:24:49;;;;;;;3.30;1.60;;;;;;;8.01;63.39;100654.84;6152905;22;96866;-52
2023/03/11 10:27:24;;;;;;;3.00;1.50;;;;;;;8.05;63.50;100660.88;6173680;22;97950;-52
2023/03/11 10:29:58;;;;;;;2.20;1.23;;;;;;;8.01;63.33;100665.81;6173759;22;97180;-52
2023/03/11 10:32:49;;;;;;;1.57;0.80;;;;;;;7.98;62.53;100672.22;6172121;22;96591;-52
2023/03/11 10:35:21;;;;;;;1.33;0.97;;;;;;;7.99;63.30;100668.25;6101663;22;96982;-52
2023/03/11 10:37:58;;;;;;;3.57;1.20;;;;;;;7.97;62.60;100687.16;6171554;22;97194;-52
2023/03/11 10:40:29;;;;;;;1.70;1.07;;;;;;;7.93;63.46;100681.13;6173042;22;99150;-52
2023/03/11 10:42:58;;;;;;;7.23;3.37;;;;;;;7.89;63.51;100683.28;6173726;22;96491;-52
2023/03/11 10:45:24;;;;;;;11.23;6.73;;;;;;;7.87;63.37;100677.50;6173156;22;97057;-52
2023/03/11 10:47:50;;;;;;;12.17;4.03;;;;;;;7.80;63.81;100675.16;6173045;22;96643;-52
2023/03/11 10:50:16;;;;;;;4.70;4.30;;;;;;;7.75;63.72;100671.09;6173009;22;97103;-52
2023/03/11 10:53:08;;;;;;;4.07;2.40;;;;;;;7.71;62.47;100673.25;6172626;22;96834;-52
2023/03/11 10:55:34;;;;;;;3.23;2.47;;;;;;;7.76;63.78;100677.31;6175118;22;97067;-52
2023/03/11 10:58:14;;;;;;;3.03;2.73;;;;;;;7.73;62.86;100681.78;6173059;22;96792;-53
2023/03/11 11:00:40;;;;;;;2.63;1.60;;;;;;;7.70;63.61;100673.72;6173910;22;97250;-53
2023/03/11 11:03:15;;;;;;;1.97;1.80;;;;;;;7.69;63.23;100677.72;6174235;22;97134;-53
2023/03/11 11:05:41;;;;;;;4.00;2.30;;;;;;;7.64;63.74;100673.66;6175070;22;96987;-52
2023/03/11 11:08:14;;;;;;;4.57;1.87;;;;;;;7.64;63.69;100681.88;6173754;22;107291;-52
2023/03/11 11:10:57;;;;;;;1.93;1.70;;;;;;;7.72;63.17;100682.22;6174316;22;96518;-51
2023/03/11 11:13:25;;;;;;;4.50;1.70;;;;;;;7.79;63.51;100688.09;6174570;22;96882;-51
2023/03/11 11:16:19;;;;;;;6.30;1.40;;;;;;;7.79;62.53;100681.88;6175052;22;96968;-51
2023/03/11 11:18:48;;;;;;;4.03;1.47;;;;;;;7.84;63.49;100678.47;6174053;22;96977;-51
2023/03/11 11:21:16;;;;;;;2.33;1.20;;;;;;;7.97;63.21;100687.16;6175051;22;97598;-51
2023/03/11 11:23:59;;;;;;;1.97;1.20;;;;;;;8.12;62.85;100682.41;6175303;22;96905;-51
2023/03/11 11:26:25;;;;;;;3.43;1.10;;;;;;;8.27;63.44;100689.44;6174744;22;96970;-51
2023/03/11 11:29:14;;;;;;;4.73;1.60;;;;;;;8.49;62.42;100689.00;6173928;22;97346;-52
2023/03/11 11:31:44;;;;;;;4.00;1.37;;;;;;;8.69;62.68;100689.00;6173165;22;97260;-52
2023/03/11 11:34:28;;;;;;;5.83;1.40;;;;;;;8.82;61.16;100685.97;6173894;22;96990;-51
2023/03/11 11:36:57;;;;;;;2.03;1.53;;;;;;;8.99;62.34;100689.66;6173434;22;96811;-52
2023/03/11 11:39:26;;;;;;;1.27;1.10;;;;;;;9.18;62.05;100690.91;6173838;22;96931;-52